sensor_id;sensor_type;location;lat;lon;timestamp;temperature;humidity
11934;DHT22;6026;48.784;9.198;2023-02-15T00:00:12;1.20;99.90
11934;DHT22;6026;48.784;9.198;2023-02-15T00:02:38;1.10;99.90
11934;DHT22;6026;48.784;9.198;2023-02-15T00:05:04;1.10;99.90
11934;DHT22;6026;48.784;9.198;2023-02-15T00:07:30;1.10;99.90
11934;DHT22;6026;48.784;9.198;2023-02-15T00:09:56;1.10;99.90
11934;DHT22;6026;48.784;9.198;2023-02-15T00:12:21;1.10;99.90
11934;DHT22;6026;48.784;9.198;2023-02-15T00:14:47;1.00;99.90
11934;DHT22;6026;48.784;9.198;2023-02-15T00:17:13;1.10;99.90
11934;DHT22;6026;48.784;9.198;2023-02-15T00:19:38;1.00;99.90
11934;DHT22;6026;48.784;9.198;2023-02-15T00:22:05;1.00;99.90
11934;DHT22;6026;48.784;9.198;2023-02-15T00:24:31;1.00;99.90
11934;DHT22;6026;48.784;9.198;2023-02-15T00:26:57;1.00;99.90
11934;DHT22;6026;48.784;9.198;2023-02-15T00:29:22;0.90;99.90
11934;DHT22;6026;48.784;9.198;2023-02-15T00:31:48;1.00;99.90
11934;DHT22;6026;48.784;9.198;2023-02-15T00:36:42;0.90;99.90
11934;DHT22;6026;48.784;9.198;2023-02-15T00:39:07;0.90;99.90
11934;DHT22;6026;48.784;9.198;2023-02-15T00:41:33;0.90;99.90
11934;DHT22;6026;48.784;9.198;2023-02-15T00:43:59;0.90;99.90
11934;DHT22;6026;48.784;9.198;2023-02-15T00:46:25;0.80;99.90
11934;DHT22;6026;48.784;9.198;2023-02-15T00:48:50;0.80;99.90
11934;DHT22;6026;48.784;9.198;2023-02-15T00:51:16;0.80;99.90
11934;DHT22;6026;48.784;9.198;2023-02-15T00:53:43;0.80;99.90
11934;DHT22;6026;48.784;9.198;2023-02-15T00:56:10;0.80;99.90
11934;DHT22;6026;48.784;9.198;2023-02-15T00:58:35;0.70;99.90
11934;DHT22;6026;48.784;9.198;2023-02-15T01:01:07;0.70;99.90
11934;DHT22;6026;48.784;9.198;2023-02-15T01:03:33;0.70;99.90
11934;DHT22;6026;48.784;9.198;2023-02-15T01:05:59;0.70;99.90
11934;DHT22;6026;48.784;9.198;2023-02-15T01:08:25;0.80;99.90
11934;DHT22;6026;48.784;9.198;2023-02-15T01:10:51;0.70;99.90
11934;DHT22;6026;48.784;9.198;2023-02-15T01:13:17;0.70;99.90
11934;DHT22;6026;48.784;9.198;2023-02-15T01:15:43;0.70;99.90
11934;DHT22;6026;48.784;9.198;2023-02-15T01:18:10;0.60;99.90
11934;DHT22;6026;48.784;9.198;2023-02-15T01:20:38;0.60;99.90
11934;DHT22;6026;48.784;9.198;2023-02-15T01:23:05;0.60;99.90
11934;DHT22;6026;48.784;9.198;2023-02-15T01:25:34;0.60;99.90
11934;DHT22;6026;48.784;9.198;2023-02-15T01:28:00;0.50;99.90
11934;DHT22;6026;48.784;9.198;2023-02-15T01:30:25;0.50;99.90
11934;DHT22;6026;48.784;9.198;2023-02-15T01:32:51;0.50;99.90
11934;DHT22;6026;48.784;9.198;2023-02-15T01:35:17;0.50;99.90
11934;DHT22;6026;48.784;9.198;2023-02-15T01:37:42;0.50;99.90
11934;DHT22;6026;48.784;9.198;2023-02-15T01:40:13;0.50;99.90
11934;DHT22;6026;48.784;9.198;2023-02-15T01:42:39;0.50;99.90
11934;DHT22;6026;48.784;9.198;2023-02-15T01:45:23;0.50;99.90
11934;DHT22;6026;48.784;9.198;2023-02-15T01:50:37;0.40;99.90
11934;DHT22;6026;48.784;9.198;2023-02-15T01:55:50;0.40;99.90
11934;DHT22;6026;48.784;9.198;2023-02-15T01:58:18;0.30;99.90
11934;DHT22;6026;48.784;9.198;2023-02-15T02:00:44;0.30;99.90
11934;DHT22;6026;48.784;9.198;2023-02-15T02:03:16;0.30;99.90
11934;DHT22;6026;48.784;9.198;2023-02-15T02:05:42;0.30;99.90
11934;DHT22;6026;48.784;9.198;2023-02-15T02:08:08;0.30;99.90
11934;DHT22;6026;48.784;9.198;2023-02-15T02:10:35;0.30;99.90
11934;DHT22;6026;48.784;9.198;2023-02-15T02:13:03;0.30;99.90
11934;DHT22;6026;48.784;9.198;2023-02-15T02:15:40;0.20;99.90
11934;DHT22;6026;48.784;9.198;2023-02-15T02:20:59;0.00;99.90
11934;DHT22;6026;48.784;9.198;2023-02-15T02:23:55;0.00;99.90
11934;DHT22;6026;48.784;9.198;2023-02-15T02:26:54;0.10;99.90
11934;DHT22;6026;48.784;9.198;2023-02-15T02:35:16;0.00;99.90
11934;DHT22;6026;48.784;9.198;2023-02-15T02:38:10;0.00;99.90
11934;DHT22;6026;48.784;9.198;2023-02-15T02:40:46;0.00;99.90
11934;DHT22;6026;48.784;9.198;2023-02-15T02:45:58;0.00;99.90
11934;DHT22;6026;48.784;9.198;2023-02-15T02:48:29;-0.10;99.90
11934;DHT22;6026;48.784;9.198;2023-02-15T02:50:56;-0.10;99.90
11934;DHT22;6026;48.784;9.198;2023-02-15T02:53:21;-0.10;99.90
11934;DHT22;6026;48.784;9.198;2023-02-15T02:55:51;-0.20;99.90
11934;DHT22;6026;48.784;9.198;2023-02-15T03:01:11;-0.20;99.90
11934;DHT22;6026;48.784;9.198;2023-02-15T03:03:47;-0.20;99.90
11934;DHT22;6026;48.784;9.198;2023-02-15T03:06:36;-0.20;99.90
11934;DHT22;6026;48.784;9.198;2023-02-15T03:09:11;-0.30;99.90
11934;DHT22;6026;48.784;9.198;2023-02-15T03:11:47;-0.30;99.90
11934;DHT22;6026;48.784;9.198;2023-02-15T03:14:14;-0.30;99.90
11934;DHT22;6026;48.784;9.198;2023-02-15T03:16:43;-0.30;99.90
11934;DHT22;6026;48.784;9.198;2023-02-15T03:19:19;-0.30;99.90
11934;DHT22;6026;48.784;9.198;2023-02-15T03:21:50;-0.40;99.90
11934;DHT22;6026;48.784;9.198;2023-02-15T03:24:25;-0.40;99.90
11934;DHT22;6026;48.784;9.198;2023-02-15T03:26:53;-0.40;99.90
11934;DHT22;6026;48.784;9.198;2023-02-15T03:29:22;-0.40;99.90
11934;DHT22;6026;48.784;9.198;2023-02-15T03:31:53;-0.40;99.90
11934;DHT22;6026;48.784;9.198;2023-02-15T03:34:20;-0.40;99.90
11934;DHT22;6026;48.784;9.198;2023-02-15T03:47:17;-0.50;99.90
11934;DHT22;6026;48.784;9.198;2023-02-15T03:50:07;-0.50;99.90
11934;DHT22;6026;48.784;9.198;2023-02-15T03:52:54;-0.50;99.90
11934;DHT22;6026;48.784;9.198;2023-02-15T03:55:20;-0.50;99.90
11934;DHT22;6026;48.784;9.198;2023-02-15T03:57:45;-0.60;99.90
11934;DHT22;6026;48.784;9.198;2023-02-15T04:00:31;-0.60;99.90
11934;DHT22;6026;48.784;9.198;2023-02-15T04:03:29;-0.60;99.90
11934;DHT22;6026;48.784;9.198;2023-02-15T04:05:56;-0.70;99.90
11934;DHT22;6026;48.784;9.198;2023-02-15T04:08:22;-0.70;99.90
11934;DHT22;6026;48.784;9.198;2023-02-15T04:11:07;-0.70;99.90
11934;DHT22;6026;48.784;9.198;2023-02-15T04:13:33;-0.70;99.90
11934;DHT22;6026;48.784;9.198;2023-02-15T04:15:58;-0.70;99.90
11934;DHT22;6026;48.784;9.198;2023-02-15T04:18:41;-0.80;99.90
11934;DHT22;6026;48.784;9.198;2023-02-15T04:21:28;-0.80;99.90
11934;DHT22;6026;48.784;9.198;2023-02-15T04:24:13;-0.80;99.90
11934;DHT22;6026;48.784;9.198;2023-02-15T04:26:57;-0.80;99.90
11934;DHT22;6026;48.784;9.198;2023-02-15T04:29:24;-0.80;99.90
11934;DHT22;6026;48.784;9.198;2023-02-15T04:31:51;-0.90;99.90
11934;DHT22;6026;48.784;9.198;2023-02-15T04:34:16;-0.90;99.90
11934;DHT22;6026;48.784;9.198;2023-02-15T04:36:42;-0.90;99.90
11934;DHT22;6026;48.784;9.198;2023-02-15T04:39:08;-1.00;99.90
11934;DHT22;6026;48.784;9.198;2023-02-15T04:41:34;-1.00;99.90
11934;DHT22;6026;48.784;9.198;2023-02-15T04:44:01;-1.00;99.90
11934;DHT22;6026;48.784;9.198;2023-02-15T04:46:27;-1.00;99.90
11934;DHT22;6026;48.784;9.198;2023-02-15T04:48:54;-1.00;99.90
11934;DHT22;6026;48.784;9.198;2023-02-15T04:51:19;-1.00;99.90
11934;DHT22;6026;48.784;9.198;2023-02-15T04:53:45;-1.00;99.90
11934;DHT22;6026;48.784;9.198;2023-02-15T04:56:11;-1.00;99.90
11934;DHT22;6026;48.784;9.198;2023-02-15T04:58:36;-1.00;99.90
11934;DHT22;6026;48.784;9.198;2023-02-15T05:01:04;-1.00;99.90
11934;DHT22;6026;48.784;9.198;2023-02-15T05:03:29;-1.00;99.90
11934;DHT22;6026;48.784;9.198;2023-02-15T05:05:55;-1.00;99.90
11934;DHT22;6026;48.784;9.198;2023-02-15T05:08:20;-1.10;99.90
11934;DHT22;6026;48.784;9.198;2023-02-15T05:10:49;-1.10;99.90
11934;DHT22;6026;48.784;9.198;2023-02-15T05:13:15;-1.10;99.90
11934;DHT22;6026;48.784;9.198;2023-02-15T05:15:41;-1.20;99.90
11934;DHT22;6026;48.784;9.198;2023-02-15T05:18:06;-1.20;99.90
11934;DHT22;6026;48.784;9.198;2023-02-15T05:20:33;-1.10;99.90
11934;DHT22;6026;48.784;9.198;2023-02-15T05:22:58;-1.20;99.90
11934;DHT22;6026;48.784;9.198;2023-02-15T05:25:24;-1.20;99.90
11934;DHT22;6026;48.784;9.198;2023-02-15T05:28:10;-1.20;99.90
11934;DHT22;6026;48.784;9.198;2023-02-15T05:31:31;-1.20;99.90
11934;DHT22;6026;48.784;9.198;2023-02-15T05:33:32;-1.30;99.90
11934;DHT22;6026;48.784;9.198;2023-02-15T05:35:58;-1.40;99.90
11934;DHT22;6026;48.784;9.198;2023-02-15T05:38:23;-1.40;99.90
11934;DHT22;6026;48.784;9.198;2023-02-15T05:40:51;-1.40;99.90
11934;DHT22;6026;48.784;9.198;2023-02-15T05:43:16;-1.40;99.90
11934;DHT22;6026;48.784;9.198;2023-02-15T05:45:45;-1.40;99.90
11934;DHT22;6026;48.784;9.198;2023-02-15T05:48:11;-1.50;99.90
11934;DHT22;6026;48.784;9.198;2023-02-15T05:50:36;-1.50;99.90
11934;DHT22;6026;48.784;9.198;2023-02-15T05:53:02;-1.50;99.90
11934;DHT22;6026;48.784;9.198;2023-02-15T05:55:28;-1.50;99.90
11934;DHT22;6026;48.784;9.198;2023-02-15T05:57:53;-1.60;99.90
11934;DHT22;6026;48.784;9.198;2023-02-15T06:00:19;-1.60;99.90
11934;DHT22;6026;48.784;9.198;2023-02-15T06:02:45;-1.70;99.90
11934;DHT22;6026;48.784;9.198;2023-02-15T06:05:10;-1.80;99.90
11934;DHT22;6026;48.784;9.198;2023-02-15T06:07:36;-1.90;99.90
11934;DHT22;6026;48.784;9.198;2023-02-15T06:10:01;-1.90;99.90
11934;DHT22;6026;48.784;9.198;2023-02-15T06:12:27;-1.90;99.90
11934;DHT22;6026;48.784;9.198;2023-02-15T06:14:53;-1.80;99.90
11934;DHT22;6026;48.784;9.198;2023-02-15T06:17:18;-1.80;99.90
11934;DHT22;6026;48.784;9.198;2023-02-15T06:19:44;-1.90;99.90
11934;DHT22;6026;48.784;9.198;2023-02-15T06:22:09;-1.80;99.90
11934;DHT22;6026;48.784;9.198;2023-02-15T06:24:35;-1.90;99.90
11934;DHT22;6026;48.784;9.198;2023-02-15T06:27:00;-1.80;99.90
11934;DHT22;6026;48.784;9.198;2023-02-15T06:29:26;-1.90;99.90
11934;DHT22;6026;48.784;9.198;2023-02-15T06:31:51;-2.00;99.90
11934;DHT22;6026;48.784;9.198;2023-02-15T06:34:17;-2.00;99.90
11934;DHT22;6026;48.784;9.198;2023-02-15T06:36:42;-1.90;99.90
11934;DHT22;6026;48.784;9.198;2023-02-15T06:39:08;-1.90;99.90
11934;DHT22;6026;48.784;9.198;2023-02-15T06:41:34;-1.90;99.90
11934;DHT22;6026;48.784;9.198;2023-02-15T06:43:59;-1.90;99.90
11934;DHT22;6026;48.784;9.198;2023-02-15T06:46:25;-1.90;99.90
11934;DHT22;6026;48.784;9.198;2023-02-15T06:48:50;-1.90;99.90
11934;DHT22;6026;48.784;9.198;2023-02-15T06:51:16;-1.90;99.90
11934;DHT22;6026;48.784;9.198;2023-02-15T06:53:42;-1.90;99.90
11934;DHT22;6026;48.784;9.198;2023-02-15T06:56:09;-1.90;99.90
11934;DHT22;6026;48.784;9.198;2023-02-15T06:58:36;-1.90;99.90
11934;DHT22;6026;48.784;9.198;2023-02-15T07:01:01;-1.90;99.90
11934;DHT22;6026;48.784;9.198;2023-02-15T07:03:27;-1.90;99.90
11934;DHT22;6026;48.784;9.198;2023-02-15T07:05:56;-1.90;99.90
11934;DHT22;6026;48.784;9.198;2023-02-15T07:08:23;-1.90;99.90
11934;DHT22;6026;48.784;9.198;2023-02-15T07:10:49;-1.80;99.90
11934;DHT22;6026;48.784;9.198;2023-02-15T07:13:15;-1.80;99.90
11934;DHT22;6026;48.784;9.198;2023-02-15T07:15:41;-1.80;99.90
11934;DHT22;6026;48.784;9.198;2023-02-15T07:18:06;-1.80;99.90
11934;DHT22;6026;48.784;9.198;2023-02-15T07:20:32;-1.80;99.90
11934;DHT22;6026;48.784;9.198;2023-02-15T07:23:01;-1.70;99.90
11934;DHT22;6026;48.784;9.198;2023-02-15T07:25:26;-1.70;99.90
11934;DHT22;6026;48.784;9.198;2023-02-15T07:28:00;-1.70;99.90
11934;DHT22;6026;48.784;9.198;2023-02-15T07:30:26;-1.60;99.90
11934;DHT22;6026;48.784;9.198;2023-02-15T07:32:56;-1.60;99.90
11934;DHT22;6026;48.784;9.198;2023-02-15T07:35:47;-1.50;99.90
11934;DHT22;6026;48.784;9.198;2023-02-15T07:38:13;-1.50;99.90
11934;DHT22;6026;48.784;9.198;2023-02-15T07:40:38;-1.40;99.90
11934;DHT22;6026;48.784;9.198;2023-02-15T07:43:04;-1.40;99.90
11934;DHT22;6026;48.784;9.198;2023-02-15T07:45:29;-1.30;99.90
11934;DHT22;6026;48.784;9.198;2023-02-15T07:47:55;-1.30;99.90
11934;DHT22;6026;48.784;9.198;2023-02-15T07:50:21;-1.20;99.90
11934;DHT22;6026;48.784;9.198;2023-02-15T07:52:46;-1.20;99.90
11934;DHT22;6026;48.784;9.198;2023-02-15T07:55:12;-1.10;99.90
11934;DHT22;6026;48.784;9.198;2023-02-15T07:57:42;-1.00;99.90
11934;DHT22;6026;48.784;9.198;2023-02-15T08:00:09;-1.00;99.90
11934;DHT22;6026;48.784;9.198;2023-02-15T08:02:34;-1.00;99.90
11934;DHT22;6026;48.784;9.198;2023-02-15T08:05:02;-1.00;99.90
11934;DHT22;6026;48.784;9.198;2023-02-15T08:07:28;-0.90;99.90
11934;DHT22;6026;48.784;9.198;2023-02-15T08:09:53;-0.80;99.90
11934;DHT22;6026;48.784;9.198;2023-02-15T08:12:19;-0.70;99.90
11934;DHT22;6026;48.784;9.198;2023-02-15T08:14:44;-0.60;99.90
11934;DHT22;6026;48.784;9.198;2023-02-15T08:17:11;-0.60;99.90
11934;DHT22;6026;48.784;9.198;2023-02-15T08:19:36;-0.60;99.90
11934;DHT22;6026;48.784;9.198;2023-02-15T08:22:07;-0.50;99.90
11934;DHT22;6026;48.784;9.198;2023-02-15T08:24:34;-0.40;99.90
11934;DHT22;6026;48.784;9.198;2023-02-15T08:27:02;-0.40;99.90
11934;DHT22;6026;48.784;9.198;2023-02-15T08:29:31;-0.30;99.90
11934;DHT22;6026;48.784;9.198;2023-02-15T08:31:59;-0.30;99.90
11934;DHT22;6026;48.784;9.198;2023-02-15T08:34:28;-0.30;99.90
11934;DHT22;6026;48.784;9.198;2023-02-15T08:36:54;-0.20;99.90
11934;DHT22;6026;48.784;9.198;2023-02-15T08:39:20;-0.10;99.90
11934;DHT22;6026;48.784;9.198;2023-02-15T08:41:47;0.00;99.90
11934;DHT22;6026;48.784;9.198;2023-02-15T08:44:15;0.20;99.90
11934;DHT22;6026;48.784;9.198;2023-02-15T08:46:42;0.20;99.90
11934;DHT22;6026;48.784;9.198;2023-02-15T08:49:09;0.40;99.90
11934;DHT22;6026;48.784;9.198;2023-02-15T08:51:38;0.40;99.90
11934;DHT22;6026;48.784;9.198;2023-02-15T08:54:07;0.50;99.90
11934;DHT22;6026;48.784;9.198;2023-02-15T08:56:36;0.60;99.90
11934;DHT22;6026;48.784;9.198;2023-02-15T08:59:04;0.60;99.90
11934;DHT22;6026;48.784;9.198;2023-02-15T09:01:31;0.70;99.90
11934;DHT22;6026;48.784;9.198;2023-02-15T09:04:05;0.70;99.90
11934;DHT22;6026;48.784;9.198;2023-02-15T09:06:34;0.70;99.90
11934;DHT22;6026;48.784;9.198;2023-02-15T09:09:00;0.70;99.90
11934;DHT22;6026;48.784;9.198;2023-02-15T09:11:28;0.80;99.90
11934;DHT22;6026;48.784;9.198;2023-02-15T09:14:00;0.80;99.90
11934;DHT22;6026;48.784;9.198;2023-02-15T09:16:28;0.90;99.90
11934;DHT22;6026;48.784;9.198;2023-02-15T09:18:54;0.90;99.90
11934;DHT22;6026;48.784;9.198;2023-02-15T09:21:22;1.00;99.90
11934;DHT22;6026;48.784;9.198;2023-02-15T09:23:51;1.10;99.90
11934;DHT22;6026;48.784;9.198;2023-02-15T09:26:19;1.30;99.90
11934;DHT22;6026;48.784;9.198;2023-02-15T09:28:47;1.40;99.90
11934;DHT22;6026;48.784;9.198;2023-02-15T09:31:19;1.40;99.90
11934;DHT22;6026;48.784;9.198;2023-02-15T09:33:47;1.60;99.90
11934;DHT22;6026;48.784;9.198;2023-02-15T09:38:46;2.10;99.90
11934;DHT22;6026;48.784;9.198;2023-02-15T09:41:38;2.50;99.90
11934;DHT22;6026;48.784;9.198;2023-02-15T09:44:31;2.70;99.90
11934;DHT22;6026;48.784;9.198;2023-02-15T09:49:54;3.70;99.90
11934;DHT22;6026;48.784;9.198;2023-02-15T09:52:31;4.40;99.90
11934;DHT22;6026;48.784;9.198;2023-02-15T09:55:17;5.20;99.90
11934;DHT22;6026;48.784;9.198;2023-02-15T09:58:11;6.10;99.90
11934;DHT22;6026;48.784;9.198;2023-02-15T10:00:56;6.70;99.90
11934;DHT22;6026;48.784;9.198;2023-02-15T10:11:59;8.80;99.90
11934;DHT22;6026;48.784;9.198;2023-02-15T10:14:34;9.20;99.90
11934;DHT22;6026;48.784;9.198;2023-02-15T10:27:32;10.20;99.90
11934;DHT22;6026;48.784;9.198;2023-02-15T10:30:12;10.50;99.90
11934;DHT22;6026;48.784;9.198;2023-02-15T10:35:22;11.30;99.90
11934;DHT22;6026;48.784;9.198;2023-02-15T10:43:19;11.70;99.90
11934;DHT22;6026;48.784;9.198;2023-02-15T10:51:10;12.20;99.90
11934;DHT22;6026;48.784;9.198;2023-02-15T10:53:52;12.30;99.90
11934;DHT22;6026;48.784;9.198;2023-02-15T10:56:35;12.60;99.90
11934;DHT22;6026;48.784;9.198;2023-02-15T11:01:35;12.90;99.90
11934;DHT22;6026;48.784;9.198;2023-02-15T11:07:25;13.30;99.90
11934;DHT22;6026;48.784;9.198;2023-02-15T11:10:00;13.30;99.90
11934;DHT22;6026;48.784;9.198;2023-02-15T11:12:29;13.40;99.90
11934;DHT22;6026;48.784;9.198;2023-02-15T11:15:19;13.60;99.90
11934;DHT22;6026;48.784;9.198;2023-02-15T11:17:51;13.70;99.90
11934;DHT22;6026;48.784;9.198;2023-02-15T11:20:26;14.10;99.90
11934;DHT22;6026;48.784;9.198;2023-02-15T11:22:54;14.10;99.90
11934;DHT22;6026;48.784;9.198;2023-02-15T11:25:30;14.10;99.90
11934;DHT22;6026;48.784;9.198;2023-02-15T11:27:57;14.20;99.90
11934;DHT22;6026;48.784;9.198;2023-02-15T11:30:42;14.00;99.90
11934;DHT22;6026;48.784;9.198;2023-02-15T11:33:18;14.10;99.90
11934;DHT22;6026;48.784;9.198;2023-02-15T11:36:14;14.50;99.90
11934;DHT22;6026;48.784;9.198;2023-02-15T11:38:42;14.60;99.90
11934;DHT22;6026;48.784;9.198;2023-02-15T11:41:17;14.80;99.90
11934;DHT22;6026;48.784;9.198;2023-02-15T11:44:14;15.00;99.90
11934;DHT22;6026;48.784;9.198;2023-02-15T11:46:41;15.00;99.90
11934;DHT22;6026;48.784;9.198;2023-02-15T11:49:29;15.50;99.90
11934;DHT22;6026;48.784;9.198;2023-02-15T11:51:56;15.70;99.90
11934;DHT22;6026;48.784;9.198;2023-02-15T11:54:29;15.30;99.90
11934;DHT22;6026;48.784;9.198;2023-02-15T11:57:00;15.30;99.90
11934;DHT22;6026;48.784;9.198;2023-02-15T11:59:34;15.40;99.90
11934;DHT22;6026;48.784;9.198;2023-02-15T12:02:00;14.80;99.90
11934;DHT22;6026;48.784;9.198;2023-02-15T12:04:39;15.30;99.90
11934;DHT22;6026;48.784;9.198;2023-02-15T12:07:30;15.80;99.90
11934;DHT22;6026;48.784;9.198;2023-02-15T12:12:42;15.90;99.90
11934;DHT22;6026;48.784;9.198;2023-02-15T12:15:10;16.10;99.90
11934;DHT22;6026;48.784;9.198;2023-02-15T12:17:40;16.10;99.90
11934;DHT22;6026;48.784;9.198;2023-02-15T12:20:33;16.30;99.90
11934;DHT22;6026;48.784;9.198;2023-02-15T12:23:15;16.50;99.90
11934;DHT22;6026;48.784;9.198;2023-02-15T12:25:55;16.50;99.90
11934;DHT22;6026;48.784;9.198;2023-02-15T12:28:34;16.70;99.90
11934;DHT22;6026;48.784;9.198;2023-02-15T12:31:07;16.70;99.90
11934;DHT22;6026;48.784;9.198;2023-02-15T12:33:39;16.90;99.90
11934;DHT22;6026;48.784;9.198;2023-02-15T12:36:21;16.70;99.90
11934;DHT22;6026;48.784;9.198;2023-02-15T12:39:24;16.90;99.90
11934;DHT22;6026;48.784;9.198;2023-02-15T12:44:29;17.30;99.90
11934;DHT22;6026;48.784;9.198;2023-02-15T12:47:09;17.20;99.90
11934;DHT22;6026;48.784;9.198;2023-02-15T12:49:43;17.10;99.90
11934;DHT22;6026;48.784;9.198;2023-02-15T12:54:43;17.30;99.90
11934;DHT22;6026;48.784;9.198;2023-02-15T13:00:05;16.40;99.90
11934;DHT22;6026;48.784;9.198;2023-02-15T13:02:42;17.10;99.90
11934;DHT22;6026;48.784;9.198;2023-02-15T13:05:19;17.30;99.90
11934;DHT22;6026;48.784;9.198;2023-02-15T13:07:53;17.40;99.90
11934;DHT22;6026;48.784;9.198;2023-02-15T13:10:30;17.60;99.90
11934;DHT22;6026;48.784;9.198;2023-02-15T13:12:57;17.70;99.90
11934;DHT22;6026;48.784;9.198;2023-02-15T13:15:39;17.90;99.90
11934;DHT22;6026;48.784;9.198;2023-02-15T13:18:12;17.50;99.90
11934;DHT22;6026;48.784;9.198;2023-02-15T13:20:40;17.70;99.90
11934;DHT22;6026;48.784;9.198;2023-02-15T13:23:34;17.00;99.90
11934;DHT22;6026;48.784;9.198;2023-02-15T13:26:03;17.40;99.90
11934;DHT22;6026;48.784;9.198;2023-02-15T13:28:45;17.30;99.90
11934;DHT22;6026;48.784;9.198;2023-02-15T13:31:17;17.30;99.90
11934;DHT22;6026;48.784;9.198;2023-02-15T13:33:47;17.50;99.90
11934;DHT22;6026;48.784;9.198;2023-02-15T13:44:21;17.20;99.90
11934;DHT22;6026;48.784;9.198;2023-02-15T13:52:47;17.20;99.90
11934;DHT22;6026;48.784;9.198;2023-02-15T13:55:27;17.30;99.90
11934;DHT22;6026;48.784;9.198;2023-02-15T14:01:21;17.10;99.90
11934;DHT22;6026;48.784;9.198;2023-02-15T14:04:02;17.30;99.90
11934;DHT22;6026;48.784;9.198;2023-02-15T14:06:58;17.10;99.90
11934;DHT22;6026;48.784;9.198;2023-02-15T14:25:48;17.10;99.90
11934;DHT22;6026;48.784;9.198;2023-02-15T14:28:25;17.30;99.90
11934;DHT22;6026;48.784;9.198;2023-02-15T14:30:55;17.30;99.90
11934;DHT22;6026;48.784;9.198;2023-02-15T14:33:55;17.00;99.90
11934;DHT22;6026;48.784;9.198;2023-02-15T14:36:23;17.10;99.90
11934;DHT22;6026;48.784;9.198;2023-02-15T14:44:50;17.00;99.90
11934;DHT22;6026;48.784;9.198;2023-02-15T14:47:36;17.00;99.90
11934;DHT22;6026;48.784;9.198;2023-02-15T14:50:38;16.60;99.90
11934;DHT22;6026;48.784;9.198;2023-02-15T14:56:16;16.50;99.90
11934;DHT22;6026;48.784;9.198;2023-02-15T15:01:26;16.40;99.90
11934;DHT22;6026;48.784;9.198;2023-02-15T15:03:59;16.30;99.90
11934;DHT22;6026;48.784;9.198;2023-02-15T15:06:32;16.20;99.90
11934;DHT22;6026;48.784;9.198;2023-02-15T15:09:24;16.20;99.90
11934;DHT22;6026;48.784;9.198;2023-02-15T15:11:53;16.20;99.90
11934;DHT22;6026;48.784;9.198;2023-02-15T15:16:57;16.10;99.90
11934;DHT22;6026;48.784;9.198;2023-02-15T15:22:21;15.80;99.90
11934;DHT22;6026;48.784;9.198;2023-02-15T15:24:48;15.70;99.90
11934;DHT22;6026;48.784;9.198;2023-02-15T15:36:40;14.70;99.90
11934;DHT22;6026;48.784;9.198;2023-02-15T15:41:48;13.80;99.90
11934;DHT22;6026;48.784;9.198;2023-02-15T15:49:58;12.40;99.90
11934;DHT22;6026;48.784;9.198;2023-02-15T15:52:25;12.10;99.90
11934;DHT22;6026;48.784;9.198;2023-02-15T15:55:15;11.80;99.90
11934;DHT22;6026;48.784;9.198;2023-02-15T15:57:44;11.50;99.90
11934;DHT22;6026;48.784;9.198;2023-02-15T16:02:52;11.10;99.90
11934;DHT22;6026;48.784;9.198;2023-02-15T16:05:18;10.90;99.90
11934;DHT22;6026;48.784;9.198;2023-02-15T16:07:45;10.70;99.90
11934;DHT22;6026;48.784;9.198;2023-02-15T16:10:23;10.50;99.90
11934;DHT22;6026;48.784;9.198;2023-02-15T16:12:49;10.30;99.90
11934;DHT22;6026;48.784;9.198;2023-02-15T16:15:30;10.00;99.90
11934;DHT22;6026;48.784;9.198;2023-02-15T16:17:59;9.80;99.90
11934;DHT22;6026;48.784;9.198;2023-02-15T16:20:34;9.70;99.90
11934;DHT22;6026;48.784;9.198;2023-02-15T16:23:32;9.40;99.90
11934;DHT22;6026;48.784;9.198;2023-02-15T16:26:13;9.20;99.90
11934;DHT22;6026;48.784;9.198;2023-02-15T16:28:50;8.90;99.90
11934;DHT22;6026;48.784;9.198;2023-02-15T16:31:17;8.80;99.90
11934;DHT22;6026;48.784;9.198;2023-02-15T16:33:44;8.80;99.90
11934;DHT22;6026;48.784;9.198;2023-02-15T16:36:22;8.60;99.90
11934;DHT22;6026;48.784;9.198;2023-02-15T16:41:17;8.40;99.90
11934;DHT22;6026;48.784;9.198;2023-02-15T16:43:48;8.30;99.90
11934;DHT22;6026;48.784;9.198;2023-02-15T16:46:26;8.00;99.90
11934;DHT22;6026;48.784;9.198;2023-02-15T16:48:57;8.00;99.90
11934;DHT22;6026;48.784;9.198;2023-02-15T16:51:26;7.80;99.90
11934;DHT22;6026;48.784;9.198;2023-02-15T16:53:53;7.70;99.90
11934;DHT22;6026;48.784;9.198;2023-02-15T16:56:24;7.70;99.90
11934;DHT22;6026;48.784;9.198;2023-02-15T16:58:52;7.60;99.90
11934;DHT22;6026;48.784;9.198;2023-02-15T17:01:21;7.50;99.90
11934;DHT22;6026;48.784;9.198;2023-02-15T17:03:50;7.50;99.90
11934;DHT22;6026;48.784;9.198;2023-02-15T17:06:26;7.40;99.90
11934;DHT22;6026;48.784;9.198;2023-02-15T17:09:03;7.60;99.90
11934;DHT22;6026;48.784;9.198;2023-02-15T17:11:36;7.50;99.90
11934;DHT22;6026;48.784;9.198;2023-02-15T17:16:44;7.60;99.90
11934;DHT22;6026;48.784;9.198;2023-02-15T17:19:47;7.60;99.90
11934;DHT22;6026;48.784;9.198;2023-02-15T17:22:25;7.60;99.90
11934;DHT22;6026;48.784;9.198;2023-02-15T17:24:59;7.60;99.90
11934;DHT22;6026;48.784;9.198;2023-02-15T17:27:28;7.40;99.90
11934;DHT22;6026;48.784;9.198;2023-02-15T17:30:05;7.20;99.90
11934;DHT22;6026;48.784;9.198;2023-02-15T17:32:37;7.00;99.90
11934;DHT22;6026;48.784;9.198;2023-02-15T17:35:24;6.90;99.90
11934;DHT22;6026;48.784;9.198;2023-02-15T17:38:01;6.90;99.90
11934;DHT22;6026;48.784;9.198;2023-02-15T17:40:33;6.90;99.90
11934;DHT22;6026;48.784;9.198;2023-02-15T17:42:59;6.70;99.90
11934;DHT22;6026;48.784;9.198;2023-02-15T17:45:31;6.60;99.90
11934;DHT22;6026;48.784;9.198;2023-02-15T17:47:57;6.50;99.90
11934;DHT22;6026;48.784;9.198;2023-02-15T17:50:25;6.40;99.90
11934;DHT22;6026;48.784;9.198;2023-02-15T17:52:52;6.40;99.90
11934;DHT22;6026;48.784;9.198;2023-02-15T17:55:21;6.40;99.90
11934;DHT22;6026;48.784;9.198;2023-02-15T17:58:00;6.30;99.90
11934;DHT22;6026;48.784;9.198;2023-02-15T18:00:26;6.20;99.90
11934;DHT22;6026;48.784;9.198;2023-02-15T18:03:11;6.10;99.90
11934;DHT22;6026;48.784;9.198;2023-02-15T18:05:56;6.10;99.90
11934;DHT22;6026;48.784;9.198;2023-02-15T18:08:41;6.00;99.90
11934;DHT22;6026;48.784;9.198;2023-02-15T18:11:25;6.00;99.90
11934;DHT22;6026;48.784;9.198;2023-02-15T18:14:04;6.00;99.90
11934;DHT22;6026;48.784;9.198;2023-02-15T18:16:34;5.90;99.90
11934;DHT22;6026;48.784;9.198;2023-02-15T18:19:00;5.90;99.90
11934;DHT22;6026;48.784;9.198;2023-02-15T18:21:26;5.90;99.90
11934;DHT22;6026;48.784;9.198;2023-02-15T18:23:52;5.80;99.90
11934;DHT22;6026;48.784;9.198;2023-02-15T18:26:22;5.60;99.90
11934;DHT22;6026;48.784;9.198;2023-02-15T18:28:49;5.60;99.90
11934;DHT22;6026;48.784;9.198;2023-02-15T18:31:16;5.70;99.90
11934;DHT22;6026;48.784;9.198;2023-02-15T18:33:53;5.70;99.90
11934;DHT22;6026;48.784;9.198;2023-02-15T18:36:23;5.70;99.90
11934;DHT22;6026;48.784;9.198;2023-02-15T18:38:50;5.60;99.90
11934;DHT22;6026;48.784;9.198;2023-02-15T18:41:18;5.60;99.90
11934;DHT22;6026;48.784;9.198;2023-02-15T18:43:45;5.60;99.90
11934;DHT22;6026;48.784;9.198;2023-02-15T18:46:11;5.40;99.90
11934;DHT22;6026;48.784;9.198;2023-02-15T18:48:37;5.30;99.90
11934;DHT22;6026;48.784;9.198;2023-02-15T18:51:03;5.30;99.90
11934;DHT22;6026;48.784;9.198;2023-02-15T18:53:29;5.20;99.90
11934;DHT22;6026;48.784;9.198;2023-02-15T18:55:54;5.10;99.90
11934;DHT22;6026;48.784;9.198;2023-02-15T18:58:23;5.10;99.90
11934;DHT22;6026;48.784;9.198;2023-02-15T19:00:49;5.10;99.90